sensor_id;sensor_type;location;lat;lon;timestamp;pressure;altitude;pressure_sealevel;temperature;humidity
55456;BME280;63021;52.836;6.376;2023-07-31T00:00:22;100889.94;;;16.78;nan
55456;BME280;63021;52.836;6.376;2023-07-31T00:02:47;100884.94;;;16.75;nan
55456;BME280;63021;52.836;6.376;2023-07-31T00:05:13;100876.22;;;16.73;nan
55456;BME280;63021;52.836;6.376;2023-07-31T00:07:38;100879.97;;;16.72;nan
55456;BME280;63021;52.836;6.376;2023-07-31T00:10:04;100865.22;;;16.68;nan
55456;BME280;63021;52.836;6.376;2023-07-31T00:12:29;100867.25;;;16.66;nan
55456;BME280;63021;52.836;6.376;2023-07-31T00:14:55;100864.56;;;16.66;nan
55456;BME280;63021;52.836;6.376;2023-07-31T00:17:20;100864.56;;;16.66;nan
55456;BME280;63021;52.836;6.376;2023-07-31T00:19:45;100864.94;;;16.63;nan
55456;BME280;63021;52.836;6.376;2023-07-31T00:22:16;100857.88;;;16.62;nan
55456;BME280;63021;52.836;6.376;2023-07-31T00:24:41;100857.06;;;16.61;nan
55456;BME280;63021;52.836;6.376;2023-07-31T00:27:07;100865.94;;;16.62;nan
55456;BME280;63021;52.836;6.376;2023-07-31T00:29:32;100858.25;;;16.59;nan
55456;BME280;63021;52.836;6.376;2023-07-31T00:31:57;100853.72;;;16.59;nan
55456;BME280;63021;52.836;6.376;2023-07-31T00:34:23;100855.13;;;16.55;nan
55456;BME280;63021;52.836;6.376;2023-07-31T00:36:48;100854.28;;;16.55;nan
55456;BME280;63021;52.836;6.376;2023-07-31T00:39:14;100847.44;;;16.52;nan
55456;BME280;63021;52.836;6.376;2023-07-31T00:41:40;100841.41;;;16.50;nan
55456;BME280;63021;52.836;6.376;2023-07-31T00:44:05;100843.25;;;16.50;nan
55456;BME280;63021;52.836;6.376;2023-07-31T00:46:31;100846.13;;;16.48;nan
55456;BME280;63021;52.836;6.376;2023-07-31T00:48:57;100837.22;;;16.48;nan
55456;BME280;63021;52.836;6.376;2023-07-31T00:51:22;100844.47;;;16.47;nan
55456;BME280;63021;52.836;6.376;2023-07-31T00:53:48;100831.22;;;16.45;nan
55456;BME280;63021;52.836;6.376;2023-07-31T00:56:13;100831.59;;;16.42;nan
55456;BME280;63021;52.836;6.376;2023-07-31T00:58:39;100833.44;;;16.42;nan
55456;BME280;63021;52.836;6.376;2023-07-31T01:01:04;100827.22;;;16.41;nan
55456;BME280;63021;52.836;6.376;2023-07-31T01:03:30;100817.69;;;16.39;nan
55456;BME280;63021;52.836;6.376;2023-07-31T01:06:09;100817.50;;;16.40;nan
55456;BME280;63021;52.836;6.376;2023-07-31T01:08:54;100818.53;;;16.39;nan
55456;BME280;63021;52.836;6.376;2023-07-31T01:11:26;100816.19;;;16.36;nan
55456;BME280;63021;52.836;6.376;2023-07-31T01:13:56;100808.13;;;16.36;nan
55456;BME280;63021;52.836;6.376;2023-07-31T01:16:22;100807.31;;;16.36;nan
55456;BME280;63021;52.836;6.376;2023-07-31T01:18:47;100798.81;;;16.32;nan
55456;BME280;63021;52.836;6.376;2023-07-31T01:26:38;100793.78;;;16.29;nan
55456;BME280;63021;52.836;6.376;2023-07-31T01:32:01;100802.88;;;16.28;nan
55456;BME280;63021;52.836;6.376;2023-07-31T01:34:29;100798.69;;;16.25;nan
55456;BME280;63021;52.836;6.376;2023-07-31T01:36:55;100796.84;;;16.26;nan
55456;BME280;63021;52.836;6.376;2023-07-31T01:39:21;100796.84;;;16.26;nan
55456;BME280;63021;52.836;6.376;2023-07-31T01:41:46;100787.97;;;16.25;nan
55456;BME280;63021;52.836;6.376;2023-07-31T01:44:12;100797.88;;;16.25;nan
55456;BME280;63021;52.836;6.376;2023-07-31T01:46:37;100784.44;;;16.25;nan
55456;BME280;63021;52.836;6.376;2023-07-31T01:49:03;100795.00;;;16.26;nan
55456;BME280;63021;52.836;6.376;2023-07-31T01:51:30;100787.13;;;16.25;nan
55456;BME280;63021;52.836;6.376;2023-07-31T01:53:59;100786.09;;;16.26;nan
55456;BME280;63021;52.836;6.376;2023-07-31T01:56:24;100783.41;;;16.26;nan
55456;BME280;63021;52.836;6.376;2023-07-31T01:58:50;100770.66;;;16.28;nan
55456;BME280;63021;52.836;6.376;2023-07-31T02:01:15;100770.66;;;16.28;nan
55456;BME280;63021;52.836;6.376;2023-07-31T02:03:40;100779.53;;;16.28;nan
55456;BME280;63021;52.836;6.376;2023-07-31T02:06:07;100771.28;;;16.30;nan
55456;BME280;63021;52.836;6.376;2023-07-31T02:08:32;100767.59;;;16.31;nan
55456;BME280;63021;52.836;6.376;2023-07-31T02:10:58;100773.78;;;16.32;nan
55456;BME280;63021;52.836;6.376;2023-07-31T02:13:23;100772.75;;;16.33;nan
55456;BME280;63021;52.836;6.376;2023-07-31T02:15:48;100758.50;;;16.32;nan
55456;BME280;63021;52.836;6.376;2023-07-31T02:18:14;100763.03;;;16.32;nan
55456;BME280;63021;52.836;6.376;2023-07-31T02:20:39;100762.66;;;16.35;nan
55456;BME280;63021;52.836;6.376;2023-07-31T02:23:04;100760.81;;;16.35;nan
55456;BME280;63021;52.836;6.376;2023-07-31T02:25:30;100746.53;;;16.35;nan
55456;BME280;63021;52.836;6.376;2023-07-31T02:27:55;100747.38;;;16.35;nan
55456;BME280;63021;52.836;6.376;2023-07-31T02:30:21;100752.38;;;16.38;nan
55456;BME280;63021;52.836;6.376;2023-07-31T02:32:47;100743.75;;;16.43;nan
55456;BME280;63021;52.836;6.376;2023-07-31T02:35:12;100739.22;;;16.43;nan
55456;BME280;63021;52.836;6.376;2023-07-31T02:37:41;100734.69;;;16.44;nan
55456;BME280;63021;52.836;6.376;2023-07-31T02:40:07;100727.25;;;16.46;nan
55456;BME280;63021;52.836;6.376;2023-07-31T02:42:32;100715.50;;;16.47;nan
55456;BME280;63021;52.836;6.376;2023-07-31T02:44:58;100715.50;;;16.47;nan
55456;BME280;63021;52.836;6.376;2023-07-31T02:47:23;100710.94;;;16.48;nan
55456;BME280;63021;52.836;6.376;2023-07-31T02:49:49;100724.84;;;16.51;nan
55456;BME280;63021;52.836;6.376;2023-07-31T02:52:14;100709.72;;;16.50;nan
55456;BME280;63021;52.836;6.376;2023-07-31T02:54:39;100713.91;;;16.53;nan
55456;BME280;63021;52.836;6.376;2023-07-31T02:57:05;100702.53;;;16.51;nan
55456;BME280;63021;52.836;6.376;2023-07-31T02:59:31;100701.28;;;16.53;nan
55456;BME280;63021;52.836;6.376;2023-07-31T03:01:56;100701.09;;;16.55;nan
55456;BME280;63021;52.836;6.376;2023-07-31T03:04:22;100698.22;;;16.56;nan
55456;BME280;63021;52.836;6.376;2023-07-31T03:06:47;100685.81;;;16.55;nan
55456;BME280;63021;52.836;6.376;2023-07-31T03:09:12;100692.69;;;16.58;nan
55456;BME280;63021;52.836;6.376;2023-07-31T03:11:38;100698.69;;;16.60;nan
55456;BME280;63021;52.836;6.376;2023-07-31T03:14:03;100688.13;;;16.58;nan
55456;BME280;63021;52.836;6.376;2023-07-31T03:16:29;100694.97;;;16.61;nan
55456;BME280;63021;52.836;6.376;2023-07-31T03:18:54;100708.41;;;16.61;nan
55456;BME280;63021;52.836;6.376;2023-07-31T03:21:20;100711.09;;;16.61;nan
55456;BME280;63021;52.836;6.376;2023-07-31T03:23:45;100708.22;;;16.62;nan
55456;BME280;63021;52.836;6.376;2023-07-31T03:26:10;100708.84;;;16.65;nan
55456;BME280;63021;52.836;6.376;2023-07-31T03:28:36;100705.34;;;16.64;nan
55456;BME280;63021;52.836;6.376;2023-07-31T03:31:02;100705.97;;;16.66;nan
55456;BME280;63021;52.836;6.376;2023-07-31T03:33:27;100707.03;;;16.65;nan
55456;BME280;63021;52.836;6.376;2023-07-31T03:35:53;100704.97;;;16.67;nan
55456;BME280;63021;52.836;6.376;2023-07-31T03:38:19;100707.66;;;16.67;nan
55456;BME280;63021;52.836;6.376;2023-07-31T03:40:44;100695.41;;;16.65;nan
55456;BME280;63021;52.836;6.376;2023-07-31T03:43:10;100698.75;;;16.67;nan
55456;BME280;63021;52.836;6.376;2023-07-31T03:45:35;100694.47;;;16.72;nan
55456;BME280;63021;52.836;6.376;2023-07-31T03:48:01;100691.59;;;16.74;nan
55456;BME280;63021;52.836;6.376;2023-07-31T03:50:26;100695.31;;;16.73;nan
55456;BME280;63021;52.836;6.376;2023-07-31T03:52:52;100707.72;;;16.74;nan
55456;BME280;63021;52.836;6.376;2023-07-31T03:55:17;100705.22;;;16.72;nan
55456;BME280;63021;52.836;6.376;2023-07-31T03:57:43;100708.75;;;16.73;nan
55456;BME280;63021;52.836;6.376;2023-07-31T04:00:09;100707.91;;;16.72;nan
55456;BME280;63021;52.836;6.376;2023-07-31T04:02:35;100699.84;;;16.72;nan
55456;BME280;63021;52.836;6.376;2023-07-31T04:05:00;100698.00;;;16.73;nan
55456;BME280;63021;52.836;6.376;2023-07-31T04:07:25;100696.13;;;16.73;nan
55456;BME280;63021;52.836;6.376;2023-07-31T04:09:51;100694.09;;;16.75;nan
55456;BME280;63021;52.836;6.376;2023-07-31T04:12:16;100690.56;;;16.75;nan
55456;BME280;63021;52.836;6.376;2023-07-31T04:14:41;100677.97;;;16.75;nan
55456;BME280;63021;52.836;6.376;2023-07-31T04:17:07;100685.84;;;16.77;nan
55456;BME280;63021;52.836;6.376;2023-07-31T04:19:32;100679.25;;;16.79;nan
55456;BME280;63021;52.836;6.376;2023-07-31T04:21:58;100684.88;;;16.85;nan
55456;BME280;63021;52.836;6.376;2023-07-31T04:24:23;100684.50;;;16.88;nan
55456;BME280;63021;52.836;6.376;2023-07-31T04:26:52;100675.22;;;16.90;nan
55456;BME280;63021;52.836;6.376;2023-07-31T04:29:17;100671.53;;;16.91;nan
55456;BME280;63021;52.836;6.376;2023-07-31T04:31:43;100673.81;;;16.94;nan
55456;BME280;63021;52.836;6.376;2023-07-31T04:34:08;100673.63;;;16.96;nan
55456;BME280;63021;52.836;6.376;2023-07-31T04:36:34;100666.19;;;16.98;nan
55456;BME280;63021;52.836;6.376;2023-07-31T04:39:00;100670.53;;;16.99;nan
55456;BME280;63021;52.836;6.376;2023-07-31T04:41:26;100668.50;;;17.01;nan
55456;BME280;63021;52.836;6.376;2023-07-31T04:43:51;100676.19;;;17.04;nan
55456;BME280;63021;52.836;6.376;2023-07-31T04:46:17;100662.28;;;17.01;nan
55456;BME280;63021;52.836;6.376;2023-07-31T04:48:42;100667.28;;;17.04;nan
55456;BME280;63021;52.836;6.376;2023-07-31T04:51:08;100669.97;;;17.04;nan
55456;BME280;63021;52.836;6.376;2023-07-31T04:53:35;100674.13;;;17.06;nan
55456;BME280;63021;52.836;6.376;2023-07-31T04:56:00;100667.09;;;17.05;nan
55456;BME280;63021;52.836;6.376;2023-07-31T04:58:25;100669.41;;;17.08;nan
55456;BME280;63021;52.836;6.376;2023-07-31T05:00:51;100666.50;;;17.10;nan
55456;BME280;63021;52.836;6.376;2023-07-31T05:03:16;100670.69;;;17.12;nan
55456;BME280;63021;52.836;6.376;2023-07-31T05:05:41;100657.03;;;17.14;nan
55456;BME280;63021;52.836;6.376;2023-07-31T05:08:07;100661.16;;;17.17;nan
55456;BME280;63021;52.836;6.376;2023-07-31T05:10:33;100650.22;;;17.18;nan
55456;BME280;63021;52.836;6.376;2023-07-31T05:12:59;100651.88;;;17.19;nan
55456;BME280;63021;52.836;6.376;2023-07-31T05:15:24;100649.84;;;17.21;nan
55456;BME280;63021;52.836;6.376;2023-07-31T05:17:50;100646.50;;;17.19;nan
55456;BME280;63021;52.836;6.376;2023-07-31T05:20:15;100656.88;;;17.22;nan
55456;BME280;63021;52.836;6.376;2023-07-31T05:22:40;100661.44;;;17.22;nan
55456;BME280;63021;52.836;6.376;2023-07-31T05:25:06;100653.16;;;17.23;nan
55456;BME280;63021;52.836;6.376;2023-07-31T05:27:32;100649.66;;;17.23;nan
55456;BME280;63021;52.836;6.376;2023-07-31T05:29:57;100639.91;;;17.22;nan
55456;BME280;63021;52.836;6.376;2023-07-31T05:32:23;100646.97;;;17.23;nan
55456;BME280;63021;52.836;6.376;2023-07-31T05:34:51;100640.53;;;17.24;nan
55456;BME280;63021;52.836;6.376;2023-07-31T05:37:17;100636.41;;;17.21;nan
55456;BME280;63021;52.836;6.376;2023-07-31T05:39:42;100645.28;;;17.22;nan
55456;BME280;63021;52.836;6.376;2023-07-31T05:42:08;100645.09;;;17.23;nan
55456;BME280;63021;52.836;6.376;2023-07-31T05:44:33;100643.22;;;17.24;nan
55456;BME280;63021;52.836;6.376;2023-07-31T05:46:59;100640.53;;;17.24;nan
55456;BME280;63021;52.836;6.376;2023-07-31T05:49:24;100646.56;;;17.26;nan
55456;BME280;63021;52.836;6.376;2023-07-31T05:51:50;100634.94;;;17.25;nan
55456;BME280;63021;52.836;6.376;2023-07-31T05:54:15;100634.78;;;17.27;nan
55456;BME280;63021;52.836;6.376;2023-07-31T05:56:40;100634.94;;;17.25;nan
55456;BME280;63021;52.836;6.376;2023-07-31T05:59:06;100636.22;;;17.29;nan
55456;BME280;63021;52.836;6.376;2023-07-31T06:01:31;100634.38;;;17.30;nan
55456;BME280;63021;52.836;6.376;2023-07-31T06:03:57;100629.19;;;17.28;nan
55456;BME280;63021;52.836;6.376;2023-07-31T06:06:22;100637.91;;;17.30;nan
55456;BME280;63021;52.836;6.376;2023-07-31T06:08:48;100637.69;;;17.32;nan
55456;BME280;63021;52.836;6.376;2023-07-31T06:11:13;100636.03;;;17.31;nan
55456;BME280;63021;52.836;6.376;2023-07-31T06:13:38;100633.34;;;17.31;nan
55456;BME280;63021;52.836;6.376;2023-07-31T06:16:04;100627.13;;;17.30;nan
55456;BME280;63021;52.836;6.376;2023-07-31T06:18:34;100634.00;;;17.33;nan
55456;BME280;63021;52.836;6.376;2023-07-31T06:20:59;100632.13;;;17.34;nan
55456;BME280;63021;52.836;6.376;2023-07-31T06:23:25;100624.25;;;17.32;nan
55456;BME280;63021;52.836;6.376;2023-07-31T06:25:50;100627.94;;;17.31;nan
55456;BME280;63021;52.836;6.376;2023-07-31T06:28:15;100629.00;;;17.30;nan
55456;BME280;63021;52.836;6.376;2023-07-31T06:30:44;100623.44;;;17.31;nan
55456;BME280;63021;52.836;6.376;2023-07-31T06:33:09;100629.63;;;17.32;nan
55456;BME280;63021;52.836;6.376;2023-07-31T06:35:35;100625.25;;;17.31;nan
55456;BME280;63021;52.836;6.376;2023-07-31T06:38:00;100615.16;;;17.33;nan
55456;BME280;63021;52.836;6.376;2023-07-31T06:40:27;100624.91;;;17.34;nan
55456;BME280;63021;52.836;6.376;2023-07-31T06:42:53;100608.31;;;17.30;nan
55456;BME280;63021;52.836;6.376;2023-07-31T06:45:18;100611.66;;;17.33;nan
55456;BME280;63021;52.836;6.376;2023-07-31T06:47:43;100602.09;;;17.30;nan
55456;BME280;63021;52.836;6.376;2023-07-31T06:50:09;100604.78;;;17.30;nan
55456;BME280;63021;52.836;6.376;2023-07-31T06:52:34;100591.13;;;17.31;nan
55456;BME280;63021;52.836;6.376;2023-07-31T06:55:01;100592.97;;;17.31;nan
55456;BME280;63021;52.836;6.376;2023-07-31T06:57:28;100591.97;;;17.32;nan
55456;BME280;63021;52.836;6.376;2023-07-31T06:59:53;100589.47;;;17.30;nan
55456;BME280;63021;52.836;6.376;2023-07-31T07:02:19;100579.53;;;17.31;nan
55456;BME280;63021;52.836;6.376;2023-07-31T07:04:44;100588.44;;;17.31;nan
55456;BME280;63021;52.836;6.376;2023-07-31T07:07:10;100569.81;;;17.30;nan
55456;BME280;63021;52.836;6.376;2023-07-31T07:09:35;100581.59;;;17.29;nan
55456;BME280;63021;52.836;6.376;2023-07-31T07:12:00;100571.84;;;17.28;nan
55456;BME280;63021;52.836;6.376;2023-07-31T07:14:26;100566.88;;;17.25;nan
55456;BME280;63021;52.836;6.376;2023-07-31T07:16:54;100561.28;;;17.26;nan
55456;BME280;63021;52.836;6.376;2023-07-31T07:19:22;100564.44;;;17.30;nan
55456;BME280;63021;52.836;6.376;2023-07-31T07:21:48;100557.19;;;17.30;nan
55456;BME280;63021;52.836;6.376;2023-07-31T07:24:13;100549.75;;;17.33;nan
55456;BME280;63021;52.836;6.376;2023-07-31T07:26:39;100541.03;;;17.30;nan
55456;BME280;63021;52.836;6.376;2023-07-31T07:29:04;100550.59;;;17.33;nan
55456;BME280;63021;52.836;6.376;2023-07-31T07:31:32;100545.41;;;17.38;nan
55456;BME280;63021;52.836;6.376;2023-07-31T07:33:59;100543.38;;;17.40;nan
55456;BME280;63021;52.836;6.376;2023-07-31T07:36:27;100545.66;;;17.43;nan
55456;BME280;63021;52.836;6.376;2023-07-31T07:38:53;100542.16;;;17.43;nan
55456;BME280;63021;52.836;6.376;2023-07-31T07:41:19;100537.38;;;17.45;nan
55456;BME280;63021;52.836;6.376;2023-07-31T07:43:44;100532.81;;;17.45;nan
55456;BME280;63021;52.836;6.376;2023-07-31T07:46:10;100541.53;;;17.47;nan
55456;BME280;63021;52.836;6.376;2023-07-31T07:48:35;100537.44;;;17.52;nan
55456;BME280;63021;52.836;6.376;2023-07-31T07:51:01;100540.94;;;17.52;nan
55456;BME280;63021;52.836;6.376;2023-07-31T07:53:27;100535.16;;;17.55;nan
55456;BME280;63021;52.836;6.376;2023-07-31T07:55:53;100536.81;;;17.56;nan
55456;BME280;63021;52.836;6.376;2023-07-31T07:58:18;100536.00;;;17.56;nan
55456;BME280;63021;52.836;6.376;2023-07-31T08:00:49;100536.00;;;17.56;nan
55456;BME280;63021;52.836;6.376;2023-07-31T08:03:15;100533.50;;;17.54;nan
55456;BME280;63021;52.836;6.376;2023-07-31T08:05:42;100522.75;;;17.54;nan
55456;BME280;63021;52.836;6.376;2023-07-31T08:08:07;100517.53;;;17.53;nan
55456;BME280;63021;52.836;6.376;2023-07-31T08:10:33;100522.13;;;17.59;nan
55456;BME280;63021;52.836;6.376;2023-07-31T08:12:58;100522.75;;;17.61;nan
55456;BME280;63021;52.836;6.376;2023-07-31T08:15:24;100515.53;;;17.61;nan
55456;BME280;63021;52.836;6.376;2023-07-31T08:17:49;100499.38;;;17.68;nan
55456;BME280;63021;52.836;6.376;2023-07-31T08:20:14;100507.91;;;17.72;nan
55456;BME280;63021;52.836;6.376;2023-07-31T08:22:40;100513.06;;;17.73;nan
55456;BME280;63021;52.836;6.376;2023-07-31T08:25:07;100511.19;;;17.74;nan
55456;BME280;63021;52.836;6.376;2023-07-31T08:27:32;100510.19;;;17.75;nan
55456;BME280;63021;52.836;6.376;2023-07-31T08:29:57;100514.53;;;17.76;nan
55456;BME280;63021;52.836;6.376;2023-07-31T08:32:23;100510.78;;;17.77;nan
55456;BME280;63021;52.836;6.376;2023-07-31T08:34:48;100512.25;;;17.79;nan
55456;BME280;63021;52.836;6.376;2023-07-31T08:37:14;100499.00;;;17.78;nan
55456;BME280;63021;52.836;6.376;2023-07-31T08:39:39;100503.34;;;17.79;nan
55456;BME280;63021;52.836;6.376;2023-07-31T08:42:08;100496.09;;;17.79;nan
55456;BME280;63021;52.836;6.376;2023-07-31T08:44:35;100507.09;;;17.84;nan
55456;BME280;63021;52.836;6.376;2023-07-31T08:47:01;100497.97;;;17.86;nan
55456;BME280;63021;52.836;6.376;2023-07-31T08:49:27;100502.97;;;17.89;nan
55456;BME280;63021;52.836;6.376;2023-07-31T08:51:54;100498.22;;;17.91;nan
55456;BME280;63021;52.836;6.376;2023-07-31T08:54:20;100485.16;;;17.88;nan
55456;BME280;63021;52.836;6.376;2023-07-31T08:56:46;100475.19;;;17.88;nan
55456;BME280;63021;52.836;6.376;2023-07-31T08:59:13;100490.78;;;17.99;nan
55456;BME280;63021;52.836;6.376;2023-07-31T09:01:44;100476.28;;;18.00;nan
55456;BME280;63021;52.836;6.376;2023-07-31T09:04:13;100483.53;;;18.00;nan
55456;BME280;63021;52.836;6.376;2023-07-31T09:06:39;100472.16;;;17.98;nan
55456;BME280;63021;52.836;6.376;2023-07-31T09:09:06;100482.09;;;18.11;nan
55456;BME280;63021;52.836;6.376;2023-07-31T09:11:31;100485.41;;;18.13;nan
55456;BME280;63021;52.836;6.376;2023-07-31T09:13:57;100487.50;;;18.17;nan
55456;BME280;63021;52.836;6.376;2023-07-31T09:16:29;100479.22;;;18.19;nan
55456;BME280;63021;52.836;6.376;2023-07-31T09:18:58;100475.47;;;18.20;nan
55456;BME280;63021;52.836;6.376;2023-07-31T09:21:24;100467.59;;;18.18;nan
55456;BME280;63021;52.836;6.376;2023-07-31T09:23:51;100477.56;;;18.25;nan
55456;BME280;63021;52.836;6.376;2023-07-31T09:26:33;100468.22;;;18.27;nan
55456;BME280;63021;52.836;6.376;2023-07-31T09:28:59;100471.75;;;18.28;nan
55456;BME280;63021;52.836;6.376;2023-07-31T09:31:39;100468.66;;;18.31;nan
55456;BME280;63021;52.836;6.376;2023-07-31T09:34:05;100471.94;;;18.33;nan
55456;BME280;63021;52.836;6.376;2023-07-31T09:36:31;100463.47;;;18.36;nan
55456;BME280;63021;52.836;6.376;2023-07-31T09:39:02;100467.38;;;18.40;nan
55456;BME280;63021;52.836;6.376;2023-07-31T09:41:28;100464.69;;;18.40;nan
55456;BME280;63021;52.836;6.376;2023-07-31T09:43:54;100455.16;;;18.44;nan
55456;BME280;63021;52.836;6.376;2023-07-31T09:46:20;100459.75;;;18.50;nan
55456;BME280;63021;52.836;6.376;2023-07-31T09:48:46;100459.09;;;18.55;nan
55456;BME280;63021;52.836;6.376;2023-07-31T09:51:12;100457.00;;;18.57;nan
55456;BME280;63021;52.836;6.376;2023-07-31T09:53:37;100448.50;;;18.60;nan
55456;BME280;63021;52.836;6.376;2023-07-31T09:56:03;100445.41;;;18.63;nan
55456;BME280;63021;52.836;6.376;2023-07-31T09:58:29;100448.50;;;18.67;nan
55456;BME280;63021;52.836;6.376;2023-07-31T10:00:57;100444.34;;;18.71;nan
55456;BME280;63021;52.836;6.376;2023-07-31T10:03:24;100436.66;;;18.75;nan
55456;BME280;63021;52.836;6.376;2023-07-31T10:05:50;100430.44;;;18.74;nan
55456;BME280;63021;52.836;6.376;2023-07-31T10:08:18;100437.69;;;18.80;nan
55456;BME280;63021;52.836;6.376;2023-07-31T10:10:45;100436.44;;;18.83;nan
55456;BME280;63021;52.836;6.376;2023-07-31T10:13:15;100441.41;;;18.86;nan
55456;BME280;63021;52.836;6.376;2023-07-31T10:15:41;100450.16;;;18.88;nan
55456;BME280;63021;52.836;6.376;2023-07-31T10:18:08;100448.28;;;18.89;nan
55456;BME280;63021;52.836;6.376;2023-07-31T10:20:35;100444.34;;;18.91;nan
55456;BME280;63021;52.836;6.376;2023-07-31T10:23:01;100445.16;;;18.92;nan
55456;BME280;63021;52.836;6.376;2023-07-31T10:25:28;100436.84;;;18.93;nan
55456;BME280;63021;52.836;6.376;2023-07-31T10:27:54;100436.03;;;18.99;nan
55456;BME280;63021;52.836;6.376;2023-07-31T10:30:26;100429.75;;;19.06;nan
55456;BME280;63021;52.836;6.376;2023-07-31T10:32:53;100432.66;;;19.11;nan
55456;BME280;63021;52.836;6.376;2023-07-31T10:35:20;100433.88;;;19.15;nan
55456;BME280;63021;52.836;6.376;2023-07-31T10:37:47;100436.34;;;19.16;nan
55456;BME280;63021;52.836;6.376;2023-07-31T10:40:16;100431.78;;;19.17;nan
55456;BME280;63021;52.836;6.376;2023-07-31T10:42:49;100438.66;;;19.19;nan
55456;BME280;63021;52.836;6.376;2023-07-31T10:45:33;100440.06;;;19.22;nan
55456;BME280;63021;52.836;6.376;2023-07-31T10:48:07;100432.81;;;19.23;nan
55456;BME280;63021;52.836;6.376;2023-07-31T10:50:37;100440.06;;;19.22;nan
55456;BME280;63021;52.836;6.376;2023-07-31T10:53:03;100440.50;;;19.19;nan
55456;BME280;63021;52.836;6.376;2023-07-31T10:55:33;100433.84;;;19.21;nan
55456;BME280;63021;52.836;6.376;2023-07-31T10:58:10;100431.16;;;19.21;nan
55456;BME280;63021;52.836;6.376;2023-07-31T11:00:41;100429.25;;;19.22;nan
55456;BME280;63021;52.836;6.376;2023-07-31T11:06:00;100425.31;;;19.25;nan
55456;BME280;63021;52.836;6.376;2023-07-31T11:08:32;100424.72;;;19.23;nan
55456;BME280;63021;52.836;6.376;2023-07-31T11:13:30;100420.56;;;19.27;nan
55456;BME280;63021;52.836;6.376;2023-07-31T11:15:56;100431.72;;;19.30;nan
55456;BME280;63021;52.836;6.376;2023-07-31T11:18:22;100424.03;;;19.34;nan
55456;BME280;63021;52.836;6.376;2023-07-31T11:20:47;100430.84;;;19.36;nan
55456;BME280;63021;52.836;6.376;2023-07-31T11:23:16;100430.47;;;19.39;nan
55456;BME280;63021;52.836;6.376;2023-07-31T11:25:44;100435.41;;;19.43;nan
55456;BME280;63021;52.836;6.376;2023-07-31T11:28:12;100427.47;;;19.48;nan
55456;BME280;63021;52.836;6.376;2023-07-31T11:30:39;100429.16;;;19.49;nan
55456;BME280;63021;52.836;6.376;2023-07-31T11:33:09;100429.13;;;19.55;nan
55456;BME280;63021;52.836;6.376;2023-07-31T11:35:41;100424.94;;;19.60;nan
55456;BME280;63021;52.836;6.376;2023-07-31T11:38:08;100418.88;;;19.64;nan
55456;BME280;63021;52.836;6.376;2023-07-31T11:40:43;100412.00;;;19.68;nan
55456;BME280;63021;52.836;6.376;2023-07-31T11:43:10;100412.97;;;19.81;nan
55456;BME280;63021;52.836;6.376;2023-07-31T11:45:37;100398.41;;;19.88;nan
55456;BME280;63021;52.836;6.376;2023-07-31T11:48:03;100408.91;;;19.97;nan
55456;BME280;63021;52.836;6.376;2023-07-31T11:50:33;100393.88;;;20.07;nan
55456;BME280;63021;52.836;6.376;2023-07-31T11:53:00;100409.41;;;20.12;nan
55456;BME280;63021;52.836;6.376;2023-07-31T11:55:28;100404.63;;;20.14;nan
55456;BME280;63021;52.836;6.376;2023-07-31T11:57:56;100405.44;;;20.15;nan
55456;BME280;63021;52.836;6.376;2023-07-31T12:00:23;100406.50;;;20.14;nan
55456;BME280;63021;52.836;6.376;2023-07-31T12:02:50;100401.72;;;20.16;nan
55456;BME280;63021;52.836;6.376;2023-07-31T12:05:15;100408.16;;;20.15;nan
55456;BME280;63021;52.836;6.376;2023-07-31T12:07:54;100414.59;;;20.14;nan
55456;BME280;63021;52.836;6.376;2023-07-31T12:12:59;100427.22;;;19.95;nan
55456;BME280;63021;52.836;6.376;2023-07-31T12:15:31;100438.72;;;19.83;nan
55456;BME280;63021;52.836;6.376;2023-07-31T12:17:57;100428.00;;;19.70;nan
55456;BME280;63021;52.836;6.376;2023-07-31T12:20:23;100434.06;;;19.65;nan
55456;BME280;63021;52.836;6.376;2023-07-31T12:22:48;100428.69;;;19.59;nan
55456;BME280;63021;52.836;6.376;2023-07-31T12:25:17;100431.19;;;19.53;nan
55456;BME280;63021;52.836;6.376;2023-07-31T12:27:45;100431.19;;;19.53;nan
55456;BME280;63021;52.836;6.376;2023-07-31T12:30:31;100432.84;;;19.54;nan
55456;BME280;63021;52.836;6.376;2023-07-31T12:32:57;100436.59;;;19.53;nan
55456;BME280;63021;52.836;6.376;2023-07-31T12:35:23;100441.16;;;19.53;nan
55456;BME280;63021;52.836;6.376;2023-07-31T12:37:48;100438.47;;;19.53;nan
55456;BME280;63021;52.836;6.376;2023-07-31T12:40:14;100429.75;;;19.51;nan
55456;BME280;63021;52.836;6.376;2023-07-31T12:42:41;100434.97;;;19.52;nan
55456;BME280;63021;52.836;6.376;2023-07-31T12:45:07;100426.84;;;19.52;nan
55456;BME280;63021;52.836;6.376;2023-07-31T12:47:33;100423.72;;;19.55;nan
55456;BME280;63021;52.836;6.376;2023-07-31T12:49:58;100420.59;;;19.59;nan
55456;BME280;63021;52.836;6.376;2023-07-31T12:52:23;100420.94;;;19.69;nan
55456;BME280;63021;52.836;6.376;2023-07-31T12:54:49;100417.78;;;19.72;nan
55456;BME280;63021;52.836;6.376;2023-07-31T12:57:14;100416.31;;;19.76;nan
55456;BME280;63021;52.836;6.376;2023-07-31T12:59:39;100412.75;;;19.82;nan
55456;BME280;63021;52.836;6.376;2023-07-31T13:02:05;100412.31;;;19.85;nan
55456;BME280;63021;52.836;6.376;2023-07-31T13:04:30;100413.31;;;19.91;nan
55456;BME280;63021;52.836;6.376;2023-07-31T13:06:56;100408.91;;;19.97;nan
55456;BME280;63021;52.836;6.376;2023-07-31T13:09:21;100404.28;;;20.04;nan
55456;BME280;63021;52.836;6.376;2023-07-31T13:11:46;100404.47;;;20.09;nan
55456;BME280;63021;52.836;6.376;2023-07-31T13:14:12;100404.81;;;20.13;nan
55456;BME280;63021;52.836;6.376;2023-07-31T13:16:37;100398.59;;;20.12;nan
55456;BME280;63021;52.836;6.376;2023-07-31T13:19:03;100400.28;;;20.13;nan
55456;BME280;63021;52.836;6.376;2023-07-31T13:21:29;100397.78;;;20.12;nan